sensor_id;sensor_type;location;lat;lon;timestamp;pressure;altitude;pressure_sealevel;temperature;humidity
56270;BME280;42176;43.240;27.880;2023-02-28T00:00:43;101081.53;;;7.19;100.00
56270;BME280;42176;43.240;27.880;2023-02-28T00:03:09;101081.59;;;7.27;100.00
56270;BME280;42176;43.240;27.880;2023-02-28T00:05:34;101066.56;;;7.16;100.00
56270;BME280;42176;43.240;27.880;2023-02-28T00:08:00;101071.94;;;7.29;100.00
56270;BME280;42176;43.240;27.880;2023-02-28T00:10:27;101078.13;;;7.37;100.00
56270;BME280;42176;43.240;27.880;2023-02-28T00:12:55;101078.91;;;7.21;100.00
56270;BME280;42176;43.240;27.880;2023-02-28T00:15:24;101090.41;;;7.29;100.00
56270;BME280;42176;43.240;27.880;2023-02-28T00:17:50;101105.31;;;7.27;100.00
56270;BME280;42176;43.240;27.880;2023-02-28T00:20:16;101108.84;;;7.32;100.00
56270;BME280;42176;43.240;27.880;2023-02-28T00:22:44;101114.94;;;7.20;100.00
56270;BME280;42176;43.240;27.880;2023-02-28T00:25:12;101093.00;;;7.26;100.00
56270;BME280;42176;43.240;27.880;2023-02-28T00:27:39;101091.22;;;7.22;100.00
56270;BME280;42176;43.240;27.880;2023-02-28T00:32:33;101101.72;;;7.19;100.00
56270;BME280;42176;43.240;27.880;2023-02-28T00:34:59;101095.47;;;7.03;100.00
56270;BME280;42176;43.240;27.880;2023-02-28T00:37:25;101092.91;;;7.10;100.00
56270;BME280;42176;43.240;27.880;2023-02-28T00:39:50;101089.47;;;7.24;100.00
56270;BME280;42176;43.240;27.880;2023-02-28T00:42:16;101088.50;;;7.08;100.00
56270;BME280;42176;43.240;27.880;2023-02-28T00:44:41;101097.28;;;7.10;100.00
56270;BME280;42176;43.240;27.880;2023-02-28T00:47:07;101100.81;;;7.12;100.00
56270;BME280;42176;43.240;27.880;2023-02-28T00:49:32;101091.16;;;7.12;100.00
56270;BME280;42176;43.240;27.880;2023-02-28T00:51:58;101085.88;;;7.14;100.00
56270;BME280;42176;43.240;27.880;2023-02-28T00:54:24;101085.91;;;7.15;100.00
56270;BME280;42176;43.240;27.880;2023-02-28T00:56:50;101088.56;;;7.20;100.00
56270;BME280;42176;43.240;27.880;2023-02-28T00:59:16;101099.97;;;7.18;100.00
56270;BME280;42176;43.240;27.880;2023-02-28T01:01:43;101085.06;;;7.23;100.00
56270;BME280;42176;43.240;27.880;2023-02-28T01:04:08;101077.16;;;7.23;100.00
56270;BME280;42176;43.240;27.880;2023-02-28T01:06:34;101075.44;;;7.28;100.00
56270;BME280;42176;43.240;27.880;2023-02-28T01:09:01;101080.69;;;7.25;100.00
56270;BME280;42176;43.240;27.880;2023-02-28T01:11:27;101088.56;;;7.20;100.00
56270;BME280;42176;43.240;27.880;2023-02-28T01:13:52;101103.50;;;7.20;100.00
56270;BME280;42176;43.240;27.880;2023-02-28T01:16:18;101118.38;;;7.10;100.00
56270;BME280;42176;43.240;27.880;2023-02-28T01:18:44;101123.50;;;6.94;100.00
56270;BME280;42176;43.240;27.880;2023-02-28T01:21:12;101122.75;;;7.06;100.00
56270;BME280;42176;43.240;27.880;2023-02-28T01:23:39;101126.34;;;7.14;100.00
56270;BME280;42176;43.240;27.880;2023-02-28T01:26:10;101120.16;;;7.12;100.00
56270;BME280;42176;43.240;27.880;2023-02-28T01:28:36;101120.94;;;7.02;100.00
56270;BME280;42176;43.240;27.880;2023-02-28T01:31:01;101128.75;;;6.90;100.00
56270;BME280;42176;43.240;27.880;2023-02-28T01:33:27;101133.06;;;6.81;100.00
56270;BME280;42176;43.240;27.880;2023-02-28T01:36:05;101126.03;;;6.80;100.00
56270;BME280;42176;43.240;27.880;2023-02-28T01:38:31;101117.25;;;6.81;100.00
56270;BME280;42176;43.240;27.880;2023-02-28T01:40:56;101111.06;;;6.75;100.00
56270;BME280;42176;43.240;27.880;2023-02-28T01:43:31;101114.59;;;6.78;100.00
56270;BME280;42176;43.240;27.880;2023-02-28T01:45:58;101133.97;;;6.83;100.00
56270;BME280;42176;43.240;27.880;2023-02-28T01:48:32;101133.97;;;6.83;100.00
56270;BME280;42176;43.240;27.880;2023-02-28T01:51:04;101120.81;;;6.86;100.00
56270;BME280;42176;43.240;27.880;2023-02-28T01:53:39;101127.91;;;6.94;100.00
56270;BME280;42176;43.240;27.880;2023-02-28T01:56:09;101129.66;;;6.93;100.00
56270;BME280;42176;43.240;27.880;2023-02-28T01:58:36;101117.38;;;6.94;100.00
56270;BME280;42176;43.240;27.880;2023-02-28T02:01:02;101129.63;;;6.89;100.00
56270;BME280;42176;43.240;27.880;2023-02-28T02:03:29;101127.88;;;6.91;100.00
56270;BME280;42176;43.240;27.880;2023-02-28T02:05:55;101127.84;;;6.86;100.00
56270;BME280;42176;43.240;27.880;2023-02-28T02:08:26;101116.31;;;6.76;100.00
56270;BME280;42176;43.240;27.880;2023-02-28T02:10:57;101111.03;;;6.73;100.00
56270;BME280;42176;43.240;27.880;2023-02-28T02:19:15;101132.13;;;6.75;100.00
56270;BME280;42176;43.240;27.880;2023-02-28T02:27:25;101143.00;;;6.22;100.00
56270;BME280;42176;43.240;27.880;2023-02-28T02:35:15;101130.50;;;6.06;100.00
56270;BME280;42176;43.240;27.880;2023-02-28T02:37:51;101126.72;;;5.88;100.00
56270;BME280;42176;43.240;27.880;2023-02-28T02:40:22;101130.22;;;5.87;100.00
56270;BME280;42176;43.240;27.880;2023-02-28T02:43:23;101138.84;;;5.77;100.00
56270;BME280;42176;43.240;27.880;2023-02-28T02:45:59;101142.09;;;5.59;100.00
56270;BME280;42176;43.240;27.880;2023-02-28T02:48:31;101145.69;;;5.66;100.00
56270;BME280;42176;43.240;27.880;2023-02-28T02:51:01;101154.81;;;5.89;100.00
56270;BME280;42176;43.240;27.880;2023-02-28T02:53:33;101168.13;;;6.00;100.00
56270;BME280;42176;43.240;27.880;2023-02-28T02:56:01;101161.00;;;5.91;100.00
56270;BME280;42176;43.240;27.880;2023-02-28T02:58:35;101111.84;;;5.92;100.00
56270;BME280;42176;43.240;27.880;2023-02-28T03:01:08;101121.94;;;6.22;100.00
56270;BME280;42176;43.240;27.880;2023-02-28T03:03:36;101122.06;;;6.35;100.00
56270;BME280;42176;43.240;27.880;2023-02-28T03:06:02;101138.09;;;6.57;100.00
56270;BME280;42176;43.240;27.880;2023-02-28T03:08:33;101146.94;;;6.62;100.00
56270;BME280;42176;43.240;27.880;2023-02-28T03:11:00;101151.81;;;6.28;100.00
56270;BME280;42176;43.240;27.880;2023-02-28T03:24:29;101191.44;;;6.37;100.00
56270;BME280;42176;43.240;27.880;2023-02-28T03:27:04;101194.03;;;6.34;100.00
56270;BME280;42176;43.240;27.880;2023-02-28T03:29:56;101170.50;;;6.51;100.00
56270;BME280;42176;43.240;27.880;2023-02-28T03:32:27;101154.00;;;6.66;100.00
56270;BME280;42176;43.240;27.880;2023-02-28T03:37:32;101169.91;;;6.75;100.00
56270;BME280;42176;43.240;27.880;2023-02-28T03:40:28;101173.31;;;6.66;100.00
56270;BME280;42176;43.240;27.880;2023-02-28T03:43:01;101149.53;;;6.59;100.00
56270;BME280;42176;43.240;27.880;2023-02-28T03:45:30;101135.53;;;6.61;100.00
56270;BME280;42176;43.240;27.880;2023-02-28T03:48:23;101146.84;;;6.55;100.00
56270;BME280;42176;43.240;27.880;2023-02-28T03:50:54;101165.03;;;6.32;100.00
56270;BME280;42176;43.240;27.880;2023-02-28T03:53:36;101188.06;;;5.84;100.00
56270;BME280;42176;43.240;27.880;2023-02-28T03:56:11;101193.63;;;6.03;100.00
56270;BME280;42176;43.240;27.880;2023-02-28T03:58:58;101195.56;;;6.16;100.00
56270;BME280;42176;43.240;27.880;2023-02-28T04:01:42;101190.09;;;6.01;100.00
56270;BME280;42176;43.240;27.880;2023-02-28T04:04:09;101193.75;;;6.12;100.00
56270;BME280;42176;43.240;27.880;2023-02-28T04:06:35;101190.81;;;5.90;100.00
56270;BME280;42176;43.240;27.880;2023-02-28T04:09:02;101212.25;;;5.58;100.00
56270;BME280;42176;43.240;27.880;2023-02-28T04:13:57;101186.59;;;6.02;100.00
56270;BME280;42176;43.240;27.880;2023-02-28T04:16:23;101193.88;;;6.21;100.00
56270;BME280;42176;43.240;27.880;2023-02-28T04:18:48;101202.84;;;6.39;100.00
56270;BME280;42176;43.240;27.880;2023-02-28T04:21:13;101195.50;;;6.13;100.00
56270;BME280;42176;43.240;27.880;2023-02-28T04:23:39;101185.03;;;6.16;100.00
56270;BME280;42176;43.240;27.880;2023-02-28T04:26:05;101182.63;;;6.35;100.00
56270;BME280;42176;43.240;27.880;2023-02-28T04:28:32;101181.59;;;6.23;100.00
56270;BME280;42176;43.240;27.880;2023-02-28T04:30:59;101172.78;;;6.18;100.00
56270;BME280;42176;43.240;27.880;2023-02-28T04:33:25;101178.75;;;6.06;100.00
56270;BME280;42176;43.240;27.880;2023-02-28T04:36:04;101186.25;;;5.80;100.00
56270;BME280;42176;43.240;27.880;2023-02-28T04:38:37;101177.81;;;6.01;100.00
56270;BME280;42176;43.240;27.880;2023-02-28T04:41:03;101165.78;;;6.23;100.00
56270;BME280;42176;43.240;27.880;2023-02-28T04:43:29;101164.19;;;6.35;100.00
56270;BME280;42176;43.240;27.880;2023-02-28T04:45:56;101146.63;;;6.34;100.00
56270;BME280;42176;43.240;27.880;2023-02-28T04:48:23;101165.13;;;6.38;100.00
56270;BME280;42176;43.240;27.880;2023-02-28T04:50:51;101160.56;;;6.27;100.00
56270;BME280;42176;43.240;27.880;2023-02-28T04:53:16;101153.06;;;5.88;100.00
56270;BME280;42176;43.240;27.880;2023-02-28T04:55:42;101140.00;;;5.96;100.00
56270;BME280;42176;43.240;27.880;2023-02-28T04:58:07;101146.09;;;5.93;100.00
56270;BME280;42176;43.240;27.880;2023-02-28T05:00:33;101139.97;;;5.34;100.00
56270;BME280;42176;43.240;27.880;2023-02-28T05:02:58;101167.00;;;5.24;100.00
56270;BME280;42176;43.240;27.880;2023-02-28T05:05:24;101183.44;;;5.11;100.00
56270;BME280;42176;43.240;27.880;2023-02-28T05:07:49;101185.13;;;5.09;100.00
56270;BME280;42176;43.240;27.880;2023-02-28T05:10:15;101181.00;;;5.23;100.00
56270;BME280;42176;43.240;27.880;2023-02-28T05:12:40;101172.94;;;5.14;100.00
56270;BME280;42176;43.240;27.880;2023-02-28T05:15:06;101167.91;;;5.26;100.00
56270;BME280;42176;43.240;27.880;2023-02-28T05:17:31;101170.59;;;5.31;100.00
56270;BME280;42176;43.240;27.880;2023-02-28T05:19:57;101189.13;;;5.39;100.00
56270;BME280;42176;43.240;27.880;2023-02-28T05:22:22;101191.47;;;5.22;100.00
56270;BME280;42176;43.240;27.880;2023-02-28T05:24:48;101191.72;;;5.36;100.00
56270;BME280;42176;43.240;27.880;2023-02-28T05:27:13;101198.13;;;5.53;100.00
56270;BME280;42176;43.240;27.880;2023-02-28T05:29:39;101199.09;;;5.58;100.00
56270;BME280;42176;43.240;27.880;2023-02-28T05:32:14;101205.28;;;5.63;100.00
56270;BME280;42176;43.240;27.880;2023-02-28T05:34:40;101223.03;;;5.77;100.00
56270;BME280;42176;43.240;27.880;2023-02-28T05:37:07;101214.38;;;5.83;100.00
56270;BME280;42176;43.240;27.880;2023-02-28T05:39:36;101247.84;;;5.94;100.00
56270;BME280;42176;43.240;27.880;2023-02-28T05:42:01;101263.97;;;6.13;100.00
56270;BME280;42176;43.240;27.880;2023-02-28T05:44:27;101273.00;;;6.31;100.00
56270;BME280;42176;43.240;27.880;2023-02-28T05:46:52;101282.72;;;6.36;100.00
56270;BME280;42176;43.240;27.880;2023-02-28T05:49:17;101289.00;;;6.45;100.00
56270;BME280;42176;43.240;27.880;2023-02-28T05:51:43;101290.06;;;6.59;100.00
56270;BME280;42176;43.240;27.880;2023-02-28T05:54:08;101290.97;;;6.63;100.00
56270;BME280;42176;43.240;27.880;2023-02-28T05:56:34;101282.06;;;6.54;100.00
56270;BME280;42176;43.240;27.880;2023-02-28T05:59:00;101276.94;;;6.64;100.00
56270;BME280;42176;43.240;27.880;2023-02-28T06:01:43;101261.66;;;6.36;100.00
56270;BME280;42176;43.240;27.880;2023-02-28T06:04:16;101269.34;;;6.19;100.00
56270;BME280;42176;43.240;27.880;2023-02-28T06:06:45;101263.91;;;6.10;100.00
56270;BME280;42176;43.240;27.880;2023-02-28T06:09:11;101269.16;;;6.07;100.00
56270;BME280;42176;43.240;27.880;2023-02-28T06:11:37;101275.34;;;6.11;100.00
56270;BME280;42176;43.240;27.880;2023-02-28T06:14:03;101262.50;;;5.75;100.00
56270;BME280;42176;43.240;27.880;2023-02-28T06:16:31;101281.44;;;5.53;100.00
56270;BME280;42176;43.240;27.880;2023-02-28T06:18:57;101239.22;;;5.46;100.00
56270;BME280;42176;43.240;27.880;2023-02-28T06:21:23;101286.34;;;5.88;100.00
56270;BME280;42176;43.240;27.880;2023-02-28T06:23:49;101286.25;;;5.80;100.00
56270;BME280;42176;43.240;27.880;2023-02-28T06:26:14;101282.56;;;5.69;100.00
56270;BME280;42176;43.240;27.880;2023-02-28T06:28:40;101281.09;;;5.86;100.00
56270;BME280;42176;43.240;27.880;2023-02-28T06:31:10;101283.00;;;5.97;100.00
56270;BME280;42176;43.240;27.880;2023-02-28T06:33:37;101279.50;;;5.98;100.00
56270;BME280;42176;43.240;27.880;2023-02-28T06:36:04;101276.09;;;6.02;100.00
56270;BME280;42176;43.240;27.880;2023-02-28T06:38:30;101274.38;;;6.04;100.00
56270;BME280;42176;43.240;27.880;2023-02-28T06:40:57;101274.50;;;6.13;100.00
56270;BME280;42176;43.240;27.880;2023-02-28T06:43:25;101269.22;;;6.13;100.00
56270;BME280;42176;43.240;27.880;2023-02-28T06:45:54;101264.75;;;6.07;100.00
56270;BME280;42176;43.240;27.880;2023-02-28T06:48:20;101257.56;;;5.97;100.00
56270;BME280;42176;43.240;27.880;2023-02-28T06:50:45;101263.78;;;6.01;100.00
56270;BME280;42176;43.240;27.880;2023-02-28T06:53:12;101267.00;;;5.84;100.00
56270;BME280;42176;43.240;27.880;2023-02-28T06:55:38;101267.00;;;5.84;100.00
56270;BME280;42176;43.240;27.880;2023-02-28T06:58:04;101276.81;;;5.94;100.00
56270;BME280;42176;43.240;27.880;2023-02-28T07:00:40;101268.25;;;6.05;100.00
56270;BME280;42176;43.240;27.880;2023-02-28T07:03:06;101274.44;;;6.07;100.00
56270;BME280;42176;43.240;27.880;2023-02-28T07:05:31;101276.16;;;6.05;100.00
56270;BME280;42176;43.240;27.880;2023-02-28T07:07:57;101266.72;;;6.21;100.00
56270;BME280;42176;43.240;27.880;2023-02-28T07:10:22;101269.38;;;6.22;100.00
56270;BME280;42176;43.240;27.880;2023-02-28T07:12:47;101276.38;;;6.20;100.00
56270;BME280;42176;43.240;27.880;2023-02-28T07:15:13;101262.13;;;6.09;100.00
56270;BME280;42176;43.240;27.880;2023-02-28T07:17:38;101278.09;;;5.64;100.00
56270;BME280;42176;43.240;27.880;2023-02-28T07:20:04;101288.13;;;4.46;100.00
56270;BME280;42176;43.240;27.880;2023-02-28T07:22:30;101284.97;;;4.63;100.00
56270;BME280;42176;43.240;27.880;2023-02-28T07:24:55;101304.03;;;4.95;100.00
56270;BME280;42176;43.240;27.880;2023-02-28T07:27:21;101291.38;;;5.22;100.00
56270;BME280;42176;43.240;27.880;2023-02-28T07:29:51;101303.81;;;5.81;100.00
56270;BME280;42176;43.240;27.880;2023-02-28T07:32:17;101297.63;;;5.77;100.00
56270;BME280;42176;43.240;27.880;2023-02-28T07:34:42;101292.94;;;5.59;100.00
56270;BME280;42176;43.240;27.880;2023-02-28T07:37:07;101279.06;;;5.70;100.00
56270;BME280;42176;43.240;27.880;2023-02-28T07:39:33;101275.41;;;5.61;100.00
56270;BME280;42176;43.240;27.880;2023-02-28T07:41:58;101268.81;;;5.87;100.00
56270;BME280;42176;43.240;27.880;2023-02-28T07:44:25;101262.06;;;6.03;100.00
56270;BME280;42176;43.240;27.880;2023-02-28T07:46:51;101258.88;;;6.25;100.00
56270;BME280;42176;43.240;27.880;2023-02-28T07:49:18;101260.25;;;6.65;100.00
56270;BME280;42176;43.240;27.880;2023-02-28T07:51:43;101269.91;;;6.63;100.00
56270;BME280;42176;43.240;27.880;2023-02-28T07:54:08;101261.16;;;6.01;100.00
56270;BME280;42176;43.240;27.880;2023-02-28T07:56:34;101254.94;;;5.99;100.00
56270;BME280;42176;43.240;27.880;2023-02-28T07:58:59;101264.38;;;6.44;100.00
56270;BME280;42176;43.240;27.880;2023-02-28T08:01:26;101281.63;;;6.90;100.00
56270;BME280;42176;43.240;27.880;2023-02-28T08:03:52;101274.66;;;6.95;100.00
56270;BME280;42176;43.240;27.880;2023-02-28T08:06:23;101292.91;;;6.76;100.00
56270;BME280;42176;43.240;27.880;2023-02-28T08:08:49;101293.28;;;6.38;100.00
56270;BME280;42176;43.240;27.880;2023-02-28T08:11:15;101305.72;;;6.48;100.00
56270;BME280;42176;43.240;27.880;2023-02-28T08:13:41;101322.53;;;6.60;100.00
56270;BME280;42176;43.240;27.880;2023-02-28T08:16:11;101318.94;;;6.51;100.00
56270;BME280;42176;43.240;27.880;2023-02-28T08:18:37;101316.94;;;6.35;100.00
56270;BME280;42176;43.240;27.880;2023-02-28T08:21:09;101313.34;;;6.30;100.00
56270;BME280;42176;43.240;27.880;2023-02-28T08:23:35;101307.13;;;6.23;100.00
56270;BME280;42176;43.240;27.880;2023-02-28T08:26:01;101310.63;;;6.90;100.00
56270;BME280;42176;43.240;27.880;2023-02-28T08:28:26;101316.06;;;7.05;100.00
56270;BME280;42176;43.240;27.880;2023-02-28T08:30:52;101308.50;;;6.59;100.00
56270;BME280;42176;43.240;27.880;2023-02-28T08:33:17;101312.38;;;6.23;100.00
56270;BME280;42176;43.240;27.880;2023-02-28T08:35:43;101260.03;;;5.86;100.00
56270;BME280;42176;43.240;27.880;2023-02-28T08:38:08;101318.56;;;6.27;100.00
56270;BME280;42176;43.240;27.880;2023-02-28T08:40:35;101312.59;;;6.37;100.00
56270;BME280;42176;43.240;27.880;2023-02-28T08:43:00;101310.19;;;6.55;100.00
56270;BME280;42176;43.240;27.880;2023-02-28T08:45:25;101316.53;;;6.07;100.00
56270;BME280;42176;43.240;27.880;2023-02-28T08:47:51;101326.97;;;6.01;100.00
56270;BME280;42176;43.240;27.880;2023-02-28T08:50:18;101309.53;;;6.09;100.00
56270;BME280;42176;43.240;27.880;2023-02-28T08:52:43;101326.03;;;6.59;100.00
56270;BME280;42176;43.240;27.880;2023-02-28T08:55:10;101326.94;;;6.59;100.00
56270;BME280;42176;43.240;27.880;2023-02-28T08:57:35;101268.72;;;5.82;100.00
56270;BME280;42176;43.240;27.880;2023-02-28T09:00:02;101322.94;;;5.71;100.00
56270;BME280;42176;43.240;27.880;2023-02-28T09:02:31;101318.53;;;5.70;100.00
56270;BME280;42176;43.240;27.880;2023-02-28T09:04:57;101318.13;;;5.99;100.00
56270;BME280;42176;43.240;27.880;2023-02-28T09:07:23;101303.34;;;6.05;100.00
56270;BME280;42176;43.240;27.880;2023-02-28T09:09:49;101313.34;;;6.30;100.00
56270;BME280;42176;43.240;27.880;2023-02-28T09:12:25;101305.81;;;5.98;100.00
56270;BME280;42176;43.240;27.880;2023-02-28T09:14:52;101304.31;;;6.11;100.00
56270;BME280;42176;43.240;27.880;2023-02-28T09:17:18;101309.97;;;6.40;100.00
56270;BME280;42176;43.240;27.880;2023-02-28T09:19:44;101319.56;;;7.04;100.00
56270;BME280;42176;43.240;27.880;2023-02-28T09:22:10;101311.72;;;7.07;100.00
56270;BME280;42176;43.240;27.880;2023-02-28T09:24:37;101311.34;;;6.76;100.00
56270;BME280;42176;43.240;27.880;2023-02-28T09:27:03;101296.13;;;6.53;100.00
56270;BME280;42176;43.240;27.880;2023-02-28T09:29:28;101308.50;;;6.61;100.00
56270;BME280;42176;43.240;27.880;2023-02-28T09:31:54;101306.88;;;6.72;100.00
56270;BME280;42176;43.240;27.880;2023-02-28T09:34:19;101312.53;;;7.03;100.00
56270;BME280;42176;43.240;27.880;2023-02-28T09:36:45;101309.03;;;7.04;100.00
56270;BME280;42176;43.240;27.880;2023-02-28T09:39:11;101313.31;;;6.93;100.00
56270;BME280;42176;43.240;27.880;2023-02-28T09:41:41;101318.94;;;6.51;100.00
56270;BME280;42176;43.240;27.880;2023-02-28T09:44:19;101317.97;;;6.46;100.00
56270;BME280;42176;43.240;27.880;2023-02-28T09:46:52;101322.69;;;6.69;100.00
56270;BME280;42176;43.240;27.880;2023-02-28T09:49:21;101336.53;;;5.99;100.00
56270;BME280;42176;43.240;27.880;2023-02-28T09:51:56;101333.84;;;5.95;100.00
56270;BME280;42176;43.240;27.880;2023-02-28T09:54:26;101337.00;;;6.25;100.00
56270;BME280;42176;43.240;27.880;2023-02-28T09:57:11;101336.38;;;6.43;100.00
56270;BME280;42176;43.240;27.880;2023-02-28T10:00:03;101350.56;;;6.51;100.00
56270;BME280;42176;43.240;27.880;2023-02-28T10:05:29;101332.00;;;5.88;100.00
56270;BME280;42176;43.240;27.880;2023-02-28T10:08:13;101354.72;;;5.83;100.00
56270;BME280;42176;43.240;27.880;2023-02-28T10:10:49;101354.84;;;5.92;100.00
56270;BME280;42176;43.240;27.880;2023-02-28T10:15:54;101348.78;;;5.46;100.00
56270;BME280;42176;43.240;27.880;2023-02-28T10:18:25;101343.94;;;5.69;100.00
56270;BME280;42176;43.240;27.880;2023-02-28T10:20:53;101345.81;;;5.75;100.00
56270;BME280;42176;43.240;27.880;2023-02-28T10:23:25;101335.72;;;6.00;100.00
56270;BME280;42176;43.240;27.880;2023-02-28T10:26:13;101329.22;;;6.33;100.00
56270;BME280;42176;43.240;27.880;2023-02-28T10:28:39;101318.66;;;6.33;100.00
56270;BME280;42176;43.240;27.880;2023-02-28T10:31:05;101316.00;;;6.30;100.00
56270;BME280;42176;43.240;27.880;2023-02-28T10:33:35;101297.44;;;6.20;100.00
56270;BME280;42176;43.240;27.880;2023-02-28T10:36:01;101302.41;;;6.02;100.00
56270;BME280;42176;43.240;27.880;2023-02-28T10:38:32;101302.53;;;6.11;100.00
56270;BME280;42176;43.240;27.880;2023-02-28T10:41:07;101302.56;;;6.76;100.00
56270;BME280;42176;43.240;27.880;2023-02-28T10:43:34;101300.06;;;6.88;100.00
56270;BME280;42176;43.240;27.880;2023-02-28T10:46:19;101300.81;;;6.78;100.00
56270;BME280;42176;43.240;27.880;2023-02-28T10:49:05;101291.78;;;6.59;100.00
56270;BME280;42176;43.240;27.880;2023-02-28T10:51:37;101281.75;;;6.30;100.00
56270;BME280;42176;43.240;27.880;2023-02-28T10:54:03;101286.25;;;6.38;100.00
56270;BME280;42176;43.240;27.880;2023-02-28T10:56:29;101275.34;;;6.78;100.00
56270;BME280;42176;43.240;27.880;2023-02-28T10:59:29;101280.72;;;6.88;100.00
56270;BME280;42176;43.240;27.880;2023-02-28T11:01:55;101269.13;;;6.73;100.00
56270;BME280;42176;43.240;27.880;2023-02-28T11:07:18;101253.59;;;6.25;100.00
56270;BME280;42176;43.240;27.880;2023-02-28T11:09:46;101267.59;;;6.21;100.00
56270;BME280;42176;43.240;27.880;2023-02-28T11:12:29;101270.34;;;6.29;100.00
56270;BME280;42176;43.240;27.880;2023-02-28T11:15:05;101274.72;;;6.29;100.00
56270;BME280;42176;43.240;27.880;2023-02-28T11:17:32;101267.81;;;6.37;100.00
56270;BME280;42176;43.240;27.880;2023-02-28T11:20:10;101276.69;;;6.45;100.00
56270;BME280;42176;43.240;27.880;2023-02-28T11:22:45;101270.66;;;6.54;100.00
56270;BME280;42176;43.240;27.880;2023-02-28T11:25:21;101274.13;;;6.50;100.00
56270;BME280;42176;43.240;27.880;2023-02-28T11:27:50;101262.94;;;6.71;100.00
56270;BME280;42176;43.240;27.880;2023-02-28T11:30:33;101261.91;;;6.57;100.00
56270;BME280;42176;43.240;27.880;2023-02-28T11:33:01;101245.22;;;6.58;100.00
56270;BME280;42176;43.240;27.880;2023-02-28T11:35:31;101250.72;;;6.76;100.00
56270;BME280;42176;43.240;27.880;2023-02-28T11:38:00;101243.13;;;7.03;100.00
56270;BME280;42176;43.240;27.880;2023-02-28T11:40:42;101254.66;;;7.12;99.21
56270;BME280;42176;43.240;27.880;2023-02-28T11:46:13;101246.53;;;6.21;100.00
56270;BME280;42176;43.240;27.880;2023-02-28T11:51:31;101238.47;;;6.78;100.00
56270;BME280;42176;43.240;27.880;2023-02-28T11:56:47;101235.47;;;6.47;100.00
56270;BME280;42176;43.240;27.880;2023-02-28T11:59:35;101239.00;;;6.51;100.00
56270;BME280;42176;43.240;27.880;2023-02-28T12:02:24;101229.72;;;6.85;100.00
56270;BME280;42176;43.240;27.880;2023-02-28T12:11:00;101227.66;;;6.53;100.00
56270;BME280;42176;43.240;27.880;2023-02-28T12:19:28;101226.50;;;6.34;100.00
56270;BME280;42176;43.240;27.880;2023-02-28T12:27:38;101246.03;;;6.50;100.00
56270;BME280;42176;43.240;27.880;2023-02-28T12:30:28;101245.53;;;6.13;100.00
56270;BME280;42176;43.240;27.880;2023-02-28T12:35:34;101243.44;;;5.92;100.00
56270;BME280;42176;43.240;27.880;2023-02-28T12:38:08;101228.97;;;6.22;100.00
56270;BME280;42176;43.240;27.880;2023-02-28T12:40:55;101236.28;;;6.43;100.00
56270;BME280;42176;43.240;27.880;2023-02-28T12:43:24;101248.44;;;6.32;100.00
56270;BME280;42176;43.240;27.880;2023-02-28T12:46:25;101241.47;;;6.37;100.00
56270;BME280;42176;43.240;27.880;2023-02-28T12:48:56;101234.84;;;6.70;100.00
56270;BME280;42176;43.240;27.880;2023-02-28T12:51:25;101228.16;;;7.00;100.00
56270;BME280;42176;43.240;27.880;2023-02-28T12:54:36;101215.34;;;6.52;100.00
56270;BME280;42176;43.240;27.880;2023-02-28T13:00:04;101242.44;;;6.44;100.00
56270;BME280;42176;43.240;27.880;2023-02-28T13:11:01;101235.56;;;5.93;100.00
56270;BME280;42176;43.240;27.880;2023-02-28T13:13:28;101244.22;;;6.45;100.00
56270;BME280;42176;43.240;27.880;2023-02-28T13:16:08;101231.72;;;6.31;100.00
56270;BME280;42176;43.240;27.880;2023-02-28T13:18:39;101221.88;;;6.16;100.00
56270;BME280;42176;43.240;27.880;2023-02-28T13:21:07;101241.72;;;5.95;100.00
56270;BME280;42176;43.240;27.880;2023-02-28T13:23:58;101252.41;;;6.02;100.00
56270;BME280;42176;43.240;27.880;2023-02-28T13:29:12;101242.44;;;6.45;100.00
56270;BME280;42176;43.240;27.880;2023-02-28T13:34:42;101237.97;;;5.78;100.00
56270;BME280;42176;43.240;27.880;2023-02-28T13:39:58;101251.16;;;5.81;100.00
56270;BME280;42176;43.240;27.880;2023-02-28T13:47:42;101249.81;;;5.51;100.00
56270;BME280;42176;43.240;27.880;2023-02-28T13:55:44;101230.13;;;5.81;100.00
56270;BME280;42176;43.240;27.880;2023-02-28T14:01:34;101217.53;;;5.61;100.00
56270;BME280;42176;43.240;27.880;2023-02-28T14:06:33;101215.56;;;5.45;100.00
56270;BME280;42176;43.240;27.880;2023-02-28T14:09:02;101214.66;;;5.46;100.00
56270;BME280;42176;43.240;27.880;2023-02-28T14:11:34;101203.41;;;5.55;100.00
56270;BME280;42176;43.240;27.880;2023-02-28T14:14:02;101205.16;;;5.53;100.00
56270;BME280;42176;43.240;27.880;2023-02-28T14:16:39;101232.22;;;5.47;100.00
56270;BME280;42176;43.240;27.880;2023-02-28T14:19:22;101221.31;;;5.24;100.00
56270;BME280;42176;43.240;27.880;2023-02-28T14:22:00;101221.34;;;5.25;100.00
56270;BME280;42176;43.240;27.880;2023-02-28T14:28:03;101231.00;;;5.26;100.00
56270;BME280;42176;43.240;27.880;2023-02-28T14:36:12;101218.72;;;5.25;100.00
56270;BME280;42176;43.240;27.880;2023-02-28T14:38:46;101226.63;;;4.78;100.00
56270;BME280;42176;43.240;27.880;2023-02-28T14:43:54;101235.38;;;5.26;100.00
56270;BME280;42176;43.240;27.880;2023-02-28T14:46:21;101234.50;;;5.25;100.00
56270;BME280;42176;43.240;27.880;2023-02-28T14:48:49;101235.75;;;5.49;100.00
56270;BME280;42176;43.240;27.880;2023-02-28T14:51:20;101231.75;;;5.73;100.00
56270;BME280;42176;43.240;27.880;2023-02-28T14:53:50;101231.34;;;5.45;100.00